createdAt,value
2022-12-15T00:02:54.085Z,11.43
2022-12-15T00:05:55.433Z,11.52
2022-12-15T00:08:56.730Z,10.65
2022-12-15T00:11:58.022Z,13.18
2022-12-15T00:14:59.311Z,12.17
2022-12-15T00:18:00.620Z,11.70
2022-12-15T00:21:01.906Z,13.77
2022-12-15T00:24:03.207Z,12.10
2022-12-15T00:27:04.524Z,11.27
2022-12-15T00:30:05.829Z,13.30
2022-12-15T00:33:07.129Z,14.73
2022-12-15T00:36:08.523Z,13.00
2022-12-15T00:39:09.821Z,15.85
2022-12-15T00:42:11.106Z,16.65
2022-12-15T00:45:12.410Z,16.30
2022-12-15T00:48:13.703Z,14.40
2022-12-15T00:51:14.992Z,16.75
2022-12-15T00:54:18.148Z,17.20
2022-12-15T00:57:19.687Z,17.35
2022-12-15T01:00:20.977Z,18.50
2022-12-15T01:03:22.403Z,18.65
2022-12-15T01:06:23.803Z,19.00
2022-12-15T01:09:25.106Z,19.67
2022-12-15T01:12:26.417Z,18.95
2022-12-15T01:15:27.695Z,17.20
2022-12-15T01:18:29.011Z,18.42
2022-12-15T01:21:30.294Z,16.95
2022-12-15T01:24:31.579Z,17.42
2022-12-15T01:27:32.893Z,17.08
2022-12-15T01:30:34.179Z,15.60
2022-12-15T01:33:35.454Z,16.58
2022-12-15T01:36:36.736Z,15.50
2022-12-15T01:39:38.035Z,16.45
2022-12-15T01:42:39.324Z,15.77
2022-12-15T01:45:40.622Z,14.50
2022-12-15T01:48:41.925Z,15.77
2022-12-15T01:51:43.226Z,13.75
2022-12-15T01:54:44.508Z,16.20
2022-12-15T01:57:49.772Z,15.35
2022-12-15T02:00:51.127Z,13.57
2022-12-15T02:03:52.470Z,14.77
2022-12-15T02:06:53.766Z,13.98
2022-12-15T02:09:55.047Z,15.20
2022-12-15T02:12:56.359Z,15.35
2022-12-15T02:15:57.712Z,13.87
2022-12-15T02:18:59.012Z,14.68
2022-12-15T02:22:00.314Z,13.68
2022-12-15T02:25:01.592Z,14.65
2022-12-15T02:28:02.886Z,15.02
2022-12-15T02:31:04.229Z,14.03
2022-12-15T02:34:05.582Z,14.63
2022-12-15T02:37:06.855Z,13.57
2022-12-15T02:40:08.151Z,13.27
2022-12-15T02:43:09.420Z,14.65
2022-12-15T02:46:10.754Z,13.43
2022-12-15T02:49:12.068Z,15.38
2022-12-15T02:52:13.360Z,13.93
2022-12-15T02:55:14.641Z,14.32
2022-12-15T02:58:15.945Z,17.17
2022-12-15T03:01:17.392Z,12.53
2022-12-15T03:04:18.804Z,12.30
2022-12-15T03:07:20.100Z,13.27
2022-12-15T03:10:21.376Z,13.20
2022-12-15T03:13:22.682Z,14.10
2022-12-15T03:16:24.025Z,14.03
2022-12-15T03:19:25.322Z,13.20
2022-12-15T03:22:26.617Z,14.30
2022-12-15T03:25:27.952Z,14.05
2022-12-15T03:28:29.247Z,13.85
2022-12-15T03:31:30.588Z,13.63
2022-12-15T03:34:31.929Z,13.18
2022-12-15T03:37:33.226Z,13.05
2022-12-15T03:40:34.523Z,14.52
2022-12-15T03:43:35.823Z,13.55
2022-12-15T03:46:37.124Z,14.30
2022-12-15T03:49:38.417Z,16.13
2022-12-15T03:52:39.724Z,13.82
2022-12-15T03:55:41.013Z,13.95
2022-12-15T03:58:42.318Z,13.50
2022-12-15T04:01:43.725Z,14.07
2022-12-15T04:04:45.115Z,14.68
2022-12-15T04:07:46.388Z,15.25
2022-12-15T04:10:47.674Z,15.48
2022-12-15T04:13:48.977Z,14.85
2022-12-15T04:16:50.309Z,16.77
2022-12-15T04:19:51.632Z,14.80
2022-12-15T04:22:52.930Z,17.33
2022-12-15T04:25:54.223Z,14.93
2022-12-15T04:28:55.496Z,16.08
2022-12-15T04:31:56.785Z,15.37
2022-12-15T04:34:58.091Z,15.98
2022-12-15T04:37:59.382Z,15.77
2022-12-15T04:41:00.662Z,16.17
2022-12-15T04:44:01.960Z,16.23
2022-12-15T04:47:03.256Z,15.70
2022-12-15T04:50:04.557Z,16.98
2022-12-15T04:53:05.825Z,16.75
2022-12-15T04:56:07.122Z,16.48
2022-12-15T04:59:08.410Z,15.88
2022-12-15T05:02:09.856Z,17.07
2022-12-15T05:05:11.259Z,15.85
2022-12-15T05:08:12.540Z,16.63
2022-12-15T05:11:13.835Z,15.27
2022-12-15T05:14:15.141Z,16.60
2022-12-15T05:17:16.469Z,16.97
2022-12-15T05:20:17.789Z,17.30
2022-12-15T05:23:19.087Z,16.05
2022-12-15T05:26:20.381Z,17.75
2022-12-15T05:29:21.675Z,15.75
2022-12-15T05:32:22.979Z,15.73
2022-12-15T05:35:24.271Z,15.77
2022-12-15T05:38:25.567Z,16.48
2022-12-15T05:41:26.835Z,16.80
2022-12-15T05:44:28.136Z,15.93
2022-12-15T05:47:29.428Z,15.83
2022-12-15T05:50:30.722Z,16.95
2022-12-15T05:53:32.472Z,18.00
2022-12-15T05:56:34.043Z,19.48
2022-12-15T05:59:35.330Z,17.33
2022-12-15T06:02:36.765Z,18.50
2022-12-15T06:05:38.082Z,21.00
2022-12-15T06:08:39.375Z,19.77
2022-12-15T06:11:40.678Z,18.27
2022-12-15T06:14:41.983Z,18.00
2022-12-15T06:17:43.288Z,20.27
2022-12-15T06:20:50.884Z,24.45
2022-12-15T06:23:52.176Z,20.02
2022-12-15T06:26:53.480Z,20.95
2022-12-15T06:29:54.781Z,21.25
2022-12-15T06:32:56.140Z,18.63
2022-12-15T06:35:57.448Z,20.42
2022-12-15T06:38:58.850Z,15.43
2022-12-15T06:42:00.149Z,21.77
2022-12-15T06:45:01.506Z,18.23
2022-12-15T06:48:02.810Z,19.30
2022-12-15T06:51:04.078Z,21.02
2022-12-15T06:54:05.533Z,24.30
2022-12-15T06:57:06.846Z,59.25
2022-12-15T07:00:08.149Z,55.35
2022-12-15T07:03:09.686Z,44.17
2022-12-15T07:06:11.118Z,39.60
2022-12-15T07:09:12.584Z,42.70
2022-12-15T07:12:13.871Z,31.75
2022-12-15T07:15:15.163Z,32.75
2022-12-15T07:18:16.458Z,36.17
2022-12-15T07:21:17.772Z,33.28
2022-12-15T07:24:19.064Z,25.90
2022-12-15T07:27:20.362Z,31.38
2022-12-15T07:30:21.648Z,26.95
2022-12-15T07:33:22.948Z,25.50
2022-12-15T07:36:24.223Z,35.47
2022-12-15T07:39:25.518Z,33.58
2022-12-15T07:42:27.823Z,32.20
2022-12-15T07:45:29.138Z,29.42
2022-12-15T07:48:30.514Z,30.07
2022-12-15T07:51:31.887Z,26.63
2022-12-15T07:54:33.252Z,28.95
2022-12-15T07:57:34.604Z,30.15
2022-12-15T08:00:35.928Z,28.00
2022-12-15T08:03:37.835Z,26.13
2022-12-15T08:06:39.653Z,24.50
2022-12-15T08:09:40.966Z,27.73
2022-12-15T08:12:42.284Z,192.00
2022-12-15T08:15:43.590Z,144.48
2022-12-15T08:18:44.886Z,127.80
2022-12-15T08:21:46.184Z,83.07
2022-12-15T08:24:47.493Z,66.43
2022-12-15T08:27:48.799Z,66.10
2022-12-15T08:30:50.092Z,59.28
2022-12-15T08:33:51.387Z,57.93
2022-12-15T08:36:52.708Z,77.35
2022-12-15T08:39:54.035Z,52.97
2022-12-15T08:42:55.602Z,51.88
2022-12-15T08:45:57.002Z,48.67
2022-12-15T08:48:58.331Z,44.97
2022-12-15T08:51:59.617Z,41.20
2022-12-15T08:55:00.916Z,58.30
2022-12-15T08:58:02.226Z,38.58
2022-12-15T09:01:03.616Z,37.13
2022-12-15T09:04:05.127Z,38.20
2022-12-15T09:07:06.467Z,41.67
2022-12-15T09:10:07.751Z,43.55
2022-12-15T09:13:09.055Z,31.95
2022-12-15T09:16:11.310Z,36.83
2022-12-15T09:19:12.949Z,31.80
2022-12-15T09:22:14.323Z,39.05
2022-12-15T09:25:15.625Z,25.92
2022-12-15T09:28:16.944Z,31.27
2022-12-15T09:31:18.269Z,33.85
2022-12-15T09:34:19.595Z,29.57
2022-12-15T09:37:20.888Z,29.73
2022-12-15T09:40:22.177Z,35.67
2022-12-15T09:43:44.512Z,33.15
2022-12-15T09:46:44.794Z,32.13
2022-12-15T09:49:51.523Z,32.00
2022-12-15T09:52:52.867Z,32.17
2022-12-15T09:55:54.176Z,32.38
2022-12-15T09:58:55.471Z,35.38
2022-12-15T10:01:57.161Z,29.85
2022-12-15T10:04:58.528Z,25.10
2022-12-15T10:07:59.865Z,33.35
2022-12-15T10:11:01.141Z,27.90
2022-12-15T10:14:02.450Z,25.77
2022-12-15T10:17:03.757Z,24.98
2022-12-15T10:20:05.044Z,36.77
2022-12-15T10:23:06.358Z,52.63
2022-12-15T10:26:07.631Z,56.80
2022-12-15T10:29:08.934Z,65.97
2022-12-15T10:32:10.372Z,51.03
2022-12-15T10:35:11.675Z,45.43
2022-12-15T10:38:14.502Z,57.38
2022-12-15T10:41:15.798Z,61.00
2022-12-15T10:44:17.133Z,61.08
2022-12-15T10:47:18.441Z,49.35
2022-12-15T10:50:24.474Z,47.23
2022-12-15T10:53:26.471Z,42.15
2022-12-15T10:56:33.178Z,38.80
2022-12-15T10:59:35.152Z,38.05
2022-12-15T11:02:36.930Z,33.47
2022-12-15T11:05:38.637Z,34.00
2022-12-15T11:08:39.921Z,34.40
2022-12-15T11:11:45.184Z,32.58
2022-12-15T11:14:47.586Z,30.00
2022-12-15T11:17:49.081Z,31.42
2022-12-15T11:20:52.031Z,32.87
2022-12-15T11:23:53.727Z,40.22
2022-12-15T11:26:56.051Z,35.35
2022-12-15T11:29:57.456Z,40.10
2022-12-15T11:32:58.879Z,36.85
2022-12-15T11:36:00.182Z,29.27
2022-12-15T11:39:01.624Z,30.70
2022-12-15T11:42:02.975Z,34.65
2022-12-15T11:45:04.272Z,30.80
2022-12-15T11:48:05.617Z,36.45
2022-12-15T11:51:06.891Z,29.43
2022-12-15T11:54:08.200Z,32.88
2022-12-15T11:57:09.484Z,31.67
2022-12-15T12:00:10.790Z,31.65
2022-12-15T12:03:12.185Z,32.03
2022-12-15T12:06:13.516Z,28.17
2022-12-15T12:09:14.837Z,42.75
2022-12-15T12:12:16.157Z,40.15
2022-12-15T12:15:17.449Z,38.28
2022-12-15T12:18:18.758Z,33.03
2022-12-15T12:21:20.056Z,45.50
2022-12-15T12:24:21.375Z,34.65
2022-12-15T12:27:22.939Z,37.60
2022-12-15T12:30:24.229Z,45.38
2022-12-15T12:33:25.511Z,37.70
2022-12-15T12:36:26.817Z,58.23
2022-12-15T12:39:28.141Z,40.13
2022-12-15T12:42:29.437Z,36.40
2022-12-15T12:45:30.701Z,40.67
2022-12-15T12:48:32.012Z,45.20
2022-12-15T12:51:33.331Z,47.87
2022-12-15T12:54:34.666Z,62.88
2022-12-15T12:57:36.014Z,55.97
2022-12-15T13:00:37.564Z,67.53
2022-12-15T13:03:38.965Z,69.82
2022-12-15T13:06:41.268Z,62.67
2022-12-15T13:09:42.698Z,47.60
2022-12-15T13:12:52.362Z,62.10
2022-12-15T13:15:54.428Z,57.95
2022-12-15T13:18:55.725Z,43.92
2022-12-15T13:21:57.046Z,44.80
2022-12-15T13:24:58.467Z,42.00
2022-12-15T13:28:00.251Z,43.58
2022-12-15T13:31:06.326Z,52.03
2022-12-15T13:34:07.828Z,39.97
2022-12-15T13:37:09.141Z,40.27
2022-12-15T13:40:10.518Z,40.63
2022-12-15T13:43:11.797Z,41.60
2022-12-15T13:46:13.147Z,40.28
2022-12-15T13:49:14.546Z,35.28
2022-12-15T13:52:15.921Z,33.03
2022-12-15T13:55:20.224Z,36.20
2022-12-15T13:58:23.943Z,35.85
2022-12-15T14:01:30.211Z,35.22
2022-12-15T14:04:33.478Z,39.85
2022-12-15T14:07:34.799Z,37.80
2022-12-15T14:10:36.093Z,38.80
2022-12-15T14:13:37.876Z,34.58
2022-12-15T14:16:39.292Z,34.35
2022-12-15T14:19:40.631Z,34.08
2022-12-15T14:22:41.946Z,44.50
2022-12-15T14:25:43.235Z,37.17
2022-12-15T14:28:44.566Z,43.72
2022-12-15T14:31:46.727Z,38.97
2022-12-15T14:34:50.699Z,36.65
2022-12-15T14:37:52.144Z,38.47
2022-12-15T14:40:54.748Z,34.42
2022-12-15T14:44:31.780Z,36.08
2022-12-15T14:47:17.352Z,44.95
2022-12-15T14:50:23.320Z,48.20
2022-12-15T14:53:26.298Z,41.13
2022-12-15T14:56:30.480Z,46.72
2022-12-15T14:59:32.395Z,61.92
2022-12-15T15:02:33.886Z,51.08
2022-12-15T15:05:35.257Z,60.05
2022-12-15T15:08:37.008Z,63.77
2022-12-15T15:11:38.599Z,82.38
2022-12-15T15:14:39.891Z,71.43
2022-12-15T15:17:41.240Z,53.50
2022-12-15T15:20:42.527Z,63.22
2022-12-15T15:23:43.816Z,52.37
2022-12-15T15:26:45.146Z,47.55
2022-12-15T15:29:46.482Z,39.65
2022-12-15T15:32:47.793Z,44.28
2022-12-15T15:35:49.091Z,43.08
2022-12-15T15:38:50.406Z,42.27
2022-12-15T15:41:52.456Z,107.30
2022-12-15T15:44:53.774Z,66.57
2022-12-15T15:47:56.355Z,80.00
2022-12-15T15:50:57.909Z,86.45
2022-12-15T15:53:59.187Z,74.57
2022-12-15T15:57:00.498Z,69.22
2022-12-15T16:00:01.793Z,72.32
2022-12-15T16:03:03.306Z,61.17
2022-12-15T16:06:04.777Z,313.65
2022-12-15T16:09:06.094Z,102.80
2022-12-15T16:12:07.383Z,95.68
2022-12-15T16:15:08.668Z,65.07
2022-12-15T16:18:09.982Z,68.22
2022-12-15T16:21:11.288Z,64.75
2022-12-15T16:24:12.599Z,71.23
2022-12-15T16:27:13.904Z,61.03
2022-12-15T16:30:15.231Z,47.00
2022-12-15T16:33:16.584Z,49.50
2022-12-15T16:36:17.909Z,125.05
2022-12-15T16:39:19.201Z,60.80
2022-12-15T16:42:20.512Z,67.38
2022-12-15T16:45:21.826Z,73.20
2022-12-15T16:48:23.503Z,61.13
2022-12-15T16:51:25.015Z,56.95
2022-12-15T16:54:26.325Z,63.17
2022-12-15T16:57:27.636Z,57.95
2022-12-15T17:00:31.882Z,51.88
2022-12-15T17:03:33.530Z,52.17
2022-12-15T17:06:35.299Z,51.78
2022-12-15T17:09:36.660Z,53.77
2022-12-15T17:12:37.966Z,39.97
2022-12-15T17:15:39.352Z,42.15
2022-12-15T17:18:40.731Z,44.72
2022-12-15T17:21:42.282Z,42.13
2022-12-15T17:24:43.605Z,47.03
2022-12-15T17:27:45.283Z,42.97
2022-12-15T17:30:46.785Z,38.20
2022-12-15T17:33:48.188Z,37.95
2022-12-15T17:36:49.508Z,38.08
2022-12-15T17:39:51.128Z,35.00
2022-12-15T17:42:52.798Z,38.08
2022-12-15T17:45:54.335Z,41.80
2022-12-15T17:48:55.742Z,38.28
2022-12-15T17:51:57.079Z,36.08
2022-12-15T17:54:58.725Z,41.37
2022-12-15T17:58:00.414Z,40.97
2022-12-15T18:01:01.784Z,34.13
2022-12-15T18:04:03.471Z,31.90
2022-12-15T18:07:04.937Z,33.75
2022-12-15T18:10:06.317Z,34.23
2022-12-15T18:13:07.630Z,33.65
2022-12-15T18:16:08.952Z,32.67
2022-12-15T18:19:10.403Z,33.70
2022-12-15T18:22:11.685Z,50.45
2022-12-15T18:25:13.327Z,31.70
2022-12-15T18:28:14.954Z,35.13
2022-12-15T18:31:16.773Z,31.45
2022-12-15T18:34:18.209Z,32.42
2022-12-15T18:37:20.747Z,28.38
2022-12-15T18:40:22.099Z,28.27
2022-12-15T18:43:23.396Z,31.58
2022-12-15T18:46:24.846Z,33.38
2022-12-15T18:49:26.539Z,26.10
2022-12-15T18:52:34.286Z,28.42
2022-12-15T18:55:36.123Z,27.27
2022-12-15T18:58:37.426Z,25.73
2022-12-15T19:01:38.923Z,27.65
2022-12-15T19:04:40.461Z,24.85
2022-12-15T19:07:42.225Z,29.80
2022-12-15T19:10:43.609Z,24.07
2022-12-15T19:13:46.385Z,24.80
2022-12-15T19:16:49.382Z,24.60
2022-12-15T19:19:51.066Z,27.35
2022-12-15T19:22:52.592Z,24.08
2022-12-15T19:25:54.637Z,24.50
2022-12-15T19:28:56.035Z,27.20
2022-12-15T19:31:57.707Z,24.30
2022-12-15T19:35:00.503Z,26.48
2022-12-15T19:38:02.117Z,27.38
2022-12-15T19:41:03.623Z,26.20
2022-12-15T19:44:05.236Z,27.05
2022-12-15T19:47:06.831Z,24.60
2022-12-15T19:50:08.158Z,24.13
2022-12-15T19:53:09.880Z,22.45
2022-12-15T19:56:11.715Z,22.93
2022-12-15T19:59:13.579Z,25.70
2022-12-15T20:02:15.256Z,23.85
2022-12-15T20:05:16.807Z,25.73
2022-12-15T20:08:18.130Z,24.75
2022-12-15T20:11:19.441Z,22.03
2022-12-15T20:14:21.161Z,22.98
2022-12-15T20:17:23.392Z,22.70
2022-12-15T20:20:24.909Z,22.75
2022-12-15T20:23:28.463Z,23.08
2022-12-15T20:26:29.869Z,26.07
2022-12-15T20:29:31.194Z,25.02
2022-12-15T20:32:38.078Z,23.10
2022-12-15T20:35:39.805Z,22.55
2022-12-15T20:38:41.564Z,25.73
2022-12-15T20:41:43.383Z,23.47
2022-12-15T20:44:45.147Z,21.70
2022-12-15T20:47:46.733Z,21.70
2022-12-15T20:50:48.449Z,23.67
2022-12-15T20:53:51.211Z,24.30
2022-12-15T20:56:52.744Z,22.63
2022-12-15T20:59:54.070Z,24.73
2022-12-15T21:02:55.578Z,22.90
2022-12-15T21:05:56.970Z,23.35
2022-12-15T21:08:58.281Z,23.58
2022-12-15T21:12:02.069Z,26.50
2022-12-15T21:15:07.146Z,23.38
2022-12-15T21:18:51.568Z,22.83
2022-12-15T21:21:29.741Z,22.58
2022-12-15T21:24:31.054Z,23.00
2022-12-15T21:27:32.358Z,23.70
2022-12-15T21:30:33.733Z,23.05
2022-12-15T21:33:35.052Z,22.67
2022-12-15T21:36:36.368Z,23.33
2022-12-15T21:39:37.656Z,22.35
2022-12-15T21:42:38.949Z,23.97
2022-12-15T21:45:40.249Z,22.80
2022-12-15T21:48:41.549Z,25.23
2022-12-15T21:51:42.953Z,21.45
2022-12-15T21:54:44.233Z,24.20
2022-12-15T21:57:45.534Z,22.00
2022-12-15T22:00:46.839Z,23.60
2022-12-15T22:03:48.128Z,23.00
2022-12-15T22:06:50.513Z,23.13
2022-12-15T22:09:52.032Z,21.73
2022-12-15T22:12:59.038Z,21.60
2022-12-15T22:16:01.030Z,22.35
2022-12-15T22:19:02.357Z,22.02
2022-12-15T22:22:03.659Z,21.73
2022-12-15T22:25:04.932Z,21.77
2022-12-15T22:28:06.236Z,22.23
2022-12-15T22:31:07.556Z,21.92
2022-12-15T22:34:08.902Z,24.67
2022-12-15T22:37:10.199Z,21.13
2022-12-15T22:40:11.491Z,21.20
2022-12-15T22:43:12.784Z,22.83
2022-12-15T22:46:14.165Z,19.88
2022-12-15T22:49:15.509Z,22.08
2022-12-15T22:52:16.801Z,21.13
2022-12-15T22:55:18.101Z,21.52
2022-12-15T22:58:19.441Z,20.87
2022-12-15T23:01:20.766Z,21.15
2022-12-15T23:04:22.084Z,20.75
2022-12-15T23:07:23.387Z,21.05
2022-12-15T23:10:24.698Z,20.88
2022-12-15T23:13:26.011Z,20.90
2022-12-15T23:16:27.367Z,20.65
2022-12-15T23:19:28.714Z,19.08
2022-12-15T23:22:30.005Z,18.55
2022-12-15T23:25:31.301Z,19.20
2022-12-15T23:28:32.587Z,20.30
2022-12-15T23:31:33.957Z,18.35
2022-12-15T23:34:35.333Z,18.15
2022-12-15T23:37:36.646Z,19.50
2022-12-15T23:40:37.929Z,17.73
2022-12-15T23:43:39.246Z,16.87
2022-12-15T23:46:40.560Z,19.05
2022-12-15T23:49:41.916Z,18.48
2022-12-15T23:52:43.236Z,17.88
2022-12-15T23:55:44.559Z,16.70
2022-12-15T23:58:45.848Z,14.97
